createdAt,value
2022-10-15T00:01:11.509Z,14.96
2022-10-15T00:03:40.664Z,14.90
2022-10-15T00:06:10.661Z,14.87
2022-10-15T00:08:39.042Z,14.83
2022-10-15T00:11:13.350Z,14.80
2022-10-15T00:13:41.020Z,14.74
2022-10-15T00:16:11.163Z,14.71
2022-10-15T00:18:38.260Z,14.69
2022-10-15T00:21:14.480Z,14.68
2022-10-15T00:23:41.869Z,14.64
2022-10-15T00:26:12.281Z,14.60
2022-10-15T00:28:41.151Z,14.56
2022-10-15T00:31:15.142Z,14.52
2022-10-15T00:33:43.021Z,14.51
2022-10-15T00:36:18.327Z,14.49
2022-10-15T00:38:45.880Z,14.46
2022-10-15T00:41:25.583Z,14.44
2022-10-15T00:44:00.829Z,14.38
2022-10-15T00:46:37.760Z,14.40
2022-10-15T00:49:31.648Z,14.38
2022-10-15T00:52:06.781Z,14.35
2022-10-15T00:54:41.421Z,14.36
2022-10-15T00:57:10.180Z,14.36
2022-10-15T00:59:41.609Z,14.31
2022-10-15T01:02:08.840Z,14.32
2022-10-15T01:04:37.001Z,14.35
2022-10-15T01:07:04.663Z,14.37
2022-10-15T01:09:32.040Z,14.38
2022-10-15T01:11:59.204Z,14.34
2022-10-15T01:14:44.879Z,14.34
2022-10-15T01:17:38.321Z,14.33
2022-10-15T01:20:14.284Z,14.32
2022-10-15T01:22:41.362Z,14.28
2022-10-15T01:25:41.262Z,14.23
2022-10-15T01:28:42.240Z,14.22
2022-10-15T01:31:44.402Z,14.25
2022-10-15T01:34:36.824Z,14.26
2022-10-15T01:37:11.900Z,14.29
2022-10-15T01:40:00.540Z,14.31
2022-10-15T01:42:37.920Z,14.30
2022-10-15T01:45:13.101Z,14.33
2022-10-15T01:48:12.185Z,14.34
2022-10-15T01:50:46.821Z,14.33
2022-10-15T01:53:17.720Z,14.34
2022-10-15T01:55:46.661Z,14.37
2022-10-15T01:58:16.940Z,14.39
2022-10-15T02:00:44.460Z,14.41
2022-10-15T02:03:11.562Z,14.41
2022-10-15T02:05:48.680Z,14.28
2022-10-15T02:08:34.081Z,14.33
2022-10-15T02:11:06.961Z,14.33
2022-10-15T02:13:49.960Z,14.23
2022-10-15T02:16:28.920Z,14.25
2022-10-15T02:19:03.421Z,14.24
2022-10-15T02:21:50.759Z,14.16
2022-10-15T02:24:23.948Z,14.09
2022-10-15T02:26:55.529Z,14.12
2022-10-15T02:29:28.321Z,14.13
2022-10-15T02:31:59.341Z,14.16
2022-10-15T02:34:30.025Z,14.13
2022-10-15T02:37:01.312Z,14.18
2022-10-15T02:39:28.484Z,14.20
2022-10-15T02:41:56.661Z,14.17
2022-10-15T02:44:25.487Z,14.19
2022-10-15T02:46:52.542Z,14.16
2022-10-15T02:49:20.661Z,14.03
2022-10-15T02:51:50.110Z,14.06
2022-10-15T02:54:17.761Z,14.10
2022-10-15T02:56:47.322Z,14.07
2022-10-15T02:59:15.541Z,14.03
2022-10-15T03:01:42.580Z,14.03
2022-10-15T03:04:10.202Z,13.99
2022-10-15T03:06:37.580Z,13.95
2022-10-15T03:09:05.582Z,13.97
2022-10-15T03:11:33.342Z,13.96
2022-10-15T03:14:01.821Z,14.01
2022-10-15T03:16:31.081Z,14.03
2022-10-15T03:18:58.101Z,14.06
2022-10-15T03:21:25.142Z,14.07
2022-10-15T03:23:59.260Z,14.07
2022-10-15T03:26:27.481Z,14.04
2022-10-15T03:28:54.862Z,14.06
2022-10-15T03:31:34.890Z,14.07
2022-10-15T03:34:03.860Z,14.08
2022-10-15T03:36:31.523Z,14.10
2022-10-15T03:38:59.633Z,14.14
2022-10-15T03:41:26.888Z,14.17
2022-10-15T03:43:54.021Z,14.22
2022-10-15T03:46:21.081Z,14.18
2022-10-15T03:48:50.040Z,14.24
2022-10-15T03:51:21.948Z,14.24
2022-10-15T03:53:55.603Z,14.23
2022-10-15T03:56:22.740Z,14.23
2022-10-15T03:58:50.082Z,14.14
2022-10-15T04:01:18.820Z,14.18
2022-10-15T04:03:46.301Z,14.17
2022-10-15T04:06:16.180Z,14.13
2022-10-15T04:08:43.217Z,14.18
2022-10-15T04:11:23.871Z,14.07
2022-10-15T04:14:01.062Z,14.06
2022-10-15T04:16:29.388Z,14.06
2022-10-15T04:18:58.880Z,14.01
2022-10-15T04:21:27.101Z,14.05
2022-10-15T04:23:58.629Z,14.10
2022-10-15T04:26:35.071Z,14.13
2022-10-15T04:29:02.169Z,14.20
2022-10-15T04:31:30.856Z,14.12
2022-10-15T04:33:58.712Z,13.98
2022-10-15T04:36:26.830Z,14.15
2022-10-15T04:39:00.679Z,14.21
2022-10-15T04:41:40.541Z,14.24
2022-10-15T04:44:11.010Z,14.29
2022-10-15T04:46:39.366Z,14.28
2022-10-15T04:49:25.113Z,14.33
2022-10-15T04:51:52.880Z,14.37
2022-10-15T04:54:33.692Z,14.37
2022-10-15T04:57:05.631Z,14.33
2022-10-15T04:59:33.629Z,14.29
2022-10-15T05:02:19.417Z,14.27
2022-10-15T05:04:51.688Z,14.26
2022-10-15T05:07:18.829Z,14.27
2022-10-15T05:09:47.675Z,14.21
2022-10-15T05:12:14.902Z,14.08
2022-10-15T05:14:42.139Z,14.09
2022-10-15T05:17:15.969Z,14.07
2022-10-15T05:19:44.297Z,14.04
2022-10-15T05:22:18.148Z,14.04
2022-10-15T05:24:51.668Z,14.03
2022-10-15T05:27:32.452Z,14.04
2022-10-15T05:30:00.854Z,14.07
2022-10-15T05:32:36.160Z,14.08
2022-10-15T05:35:03.978Z,14.00
2022-10-15T05:37:47.371Z,13.93
2022-10-15T05:40:18.237Z,14.02
2022-10-15T05:43:01.276Z,13.88
2022-10-15T05:45:28.387Z,13.81
2022-10-15T05:47:58.484Z,13.80
2022-10-15T05:50:25.750Z,13.86
2022-10-15T05:52:55.970Z,13.84
2022-10-15T05:55:40.065Z,13.90
2022-10-15T05:58:07.099Z,13.90
2022-10-15T06:00:35.130Z,13.97
2022-10-15T06:03:02.175Z,14.00
2022-10-15T06:05:29.111Z,14.05
2022-10-15T06:07:57.090Z,14.08
2022-10-15T06:10:24.219Z,14.15
2022-10-15T06:12:51.804Z,14.14
2022-10-15T06:15:19.703Z,14.22
2022-10-15T06:17:46.781Z,14.23
2022-10-15T06:20:14.057Z,14.26
2022-10-15T06:22:41.056Z,14.30
2022-10-15T06:25:09.490Z,14.32
2022-10-15T06:27:36.598Z,14.32
2022-10-15T06:30:04.319Z,14.34
2022-10-15T06:32:31.415Z,14.33
2022-10-15T06:34:58.458Z,14.28
2022-10-15T06:37:26.459Z,14.30
2022-10-15T06:39:55.062Z,14.30
2022-10-15T06:42:22.270Z,14.38
2022-10-15T06:44:55.215Z,14.45
2022-10-15T06:47:23.118Z,14.48
2022-10-15T06:49:50.569Z,14.51
2022-10-15T06:52:17.653Z,14.50
2022-10-15T06:54:44.806Z,14.56
2022-10-15T06:57:11.970Z,14.61
2022-10-15T06:59:41.331Z,14.55
2022-10-15T07:02:14.430Z,14.60
2022-10-15T07:04:41.432Z,14.63
2022-10-15T07:07:08.451Z,14.69
2022-10-15T07:09:35.624Z,14.73
2022-10-15T07:12:03.041Z,14.70
2022-10-15T07:14:30.214Z,14.76
2022-10-15T07:16:58.433Z,14.79
2022-10-15T07:19:25.553Z,14.74
2022-10-15T07:21:52.515Z,14.77
2022-10-15T07:24:19.511Z,14.75
2022-10-15T07:26:48.034Z,14.72
2022-10-15T07:29:15.094Z,14.57
2022-10-15T07:34:30.709Z,14.74
2022-10-15T07:36:57.640Z,14.80
2022-10-15T07:39:24.651Z,14.85
2022-10-15T07:41:51.953Z,14.91
2022-10-15T07:44:18.867Z,14.99
2022-10-15T07:46:47.673Z,15.02
2022-10-15T07:49:16.515Z,15.08
2022-10-15T07:51:45.397Z,15.15
2022-10-15T07:54:12.520Z,15.19
2022-10-15T07:56:39.631Z,15.21
2022-10-15T07:59:08.785Z,15.27
2022-10-15T08:01:35.815Z,15.33
2022-10-15T08:04:02.920Z,15.31
2022-10-15T08:06:32.192Z,15.35
2022-10-15T08:08:59.151Z,15.37
2022-10-15T08:11:28.864Z,15.39
2022-10-15T08:13:56.707Z,15.39
2022-10-15T08:16:23.824Z,15.41
2022-10-15T08:19:00.580Z,15.49
2022-10-15T08:21:28.081Z,15.51
2022-10-15T08:23:55.084Z,15.59
2022-10-15T08:26:33.718Z,15.57
2022-10-15T08:29:01.576Z,15.71
2022-10-15T08:31:28.670Z,15.75
2022-10-15T08:34:05.068Z,15.76
2022-10-15T08:36:32.350Z,15.81
2022-10-15T08:38:59.505Z,15.78
2022-10-15T08:41:33.192Z,15.85
2022-10-15T08:44:00.803Z,15.87
2022-10-15T08:46:45.769Z,15.87
2022-10-15T08:49:55.525Z,15.87
2022-10-15T08:52:46.479Z,15.89
2022-10-15T08:55:19.856Z,15.90
2022-10-15T08:58:00.827Z,15.89
2022-10-15T09:00:38.936Z,15.89
2022-10-15T09:03:11.097Z,15.84
2022-10-15T09:05:52.582Z,15.83
2022-10-15T09:08:48.469Z,15.88
2022-10-15T09:11:53.068Z,15.91
2022-10-15T09:14:25.863Z,15.92
2022-10-15T09:16:54.186Z,15.94
2022-10-15T09:19:24.111Z,15.93
2022-10-15T09:21:52.987Z,15.91
2022-10-15T09:24:30.563Z,15.92
2022-10-15T09:27:13.102Z,15.94
2022-10-15T09:33:37.063Z,16.04
2022-10-15T09:36:30.166Z,16.07
2022-10-15T09:39:39.308Z,16.09
2022-10-15T09:42:51.211Z,16.13
2022-10-15T09:45:19.078Z,16.14
2022-10-15T09:47:46.929Z,16.19
2022-10-15T09:50:15.868Z,16.24
2022-10-15T09:53:09.084Z,16.28
2022-10-15T09:55:59.695Z,16.34
2022-10-15T09:58:31.135Z,16.39
2022-10-15T10:01:01.777Z,16.42
2022-10-15T10:03:36.964Z,16.47
2022-10-15T10:06:07.692Z,16.57
2022-10-15T10:11:15.973Z,16.62
2022-10-15T10:13:48.987Z,16.78
2022-10-15T10:16:18.290Z,16.86
2022-10-15T10:19:03.123Z,16.91
2022-10-15T10:21:39.340Z,16.97
2022-10-15T10:24:29.274Z,17.12
2022-10-15T10:26:57.913Z,17.18
2022-10-15T10:29:34.090Z,17.29
2022-10-15T10:32:11.568Z,17.34
2022-10-15T10:34:38.634Z,17.39
2022-10-15T10:37:07.815Z,17.44
2022-10-15T10:39:36.829Z,17.50
2022-10-15T10:42:20.182Z,17.49
2022-10-15T10:44:47.311Z,17.49
2022-10-15T10:47:26.877Z,17.66
2022-10-15T10:49:58.157Z,17.64
2022-10-15T10:52:32.681Z,17.70
2022-10-15T10:55:18.594Z,17.80
2022-10-15T10:57:50.330Z,17.86
2022-10-15T11:00:23.057Z,17.79
2022-10-15T11:13:31.808Z,17.10
2022-10-15T11:16:04.386Z,17.15
2022-10-15T11:18:53.899Z,17.13
2022-10-15T11:21:36.418Z,17.24
2022-10-15T11:24:09.692Z,17.33
2022-10-15T11:27:10.404Z,17.57
2022-10-15T11:29:59.118Z,17.83
2022-10-15T11:33:10.753Z,18.05
2022-10-15T11:35:55.342Z,18.21
2022-10-15T11:38:29.792Z,18.39
2022-10-15T11:41:33.964Z,18.47
2022-10-15T11:44:26.796Z,18.58
2022-10-15T11:47:11.483Z,18.67
2022-10-15T11:49:44.375Z,18.69
2022-10-15T11:52:17.676Z,18.78
2022-10-15T11:55:01.872Z,18.82
2022-10-15T11:57:34.089Z,18.83
2022-10-15T12:00:42.760Z,18.98
2022-10-15T12:03:19.835Z,19.13
2022-10-15T12:06:09.010Z,19.17
2022-10-15T12:08:43.135Z,19.27
2022-10-15T12:11:33.942Z,19.33
2022-10-15T12:14:08.379Z,19.28
2022-10-15T12:17:02.846Z,19.27
2022-10-15T12:19:43.980Z,19.20
2022-10-15T12:22:11.907Z,19.11
2022-10-15T12:24:44.938Z,19.10
2022-10-15T12:27:23.733Z,19.03
2022-10-15T12:30:04.170Z,19.01
2022-10-15T12:32:40.724Z,19.06
2022-10-15T12:35:39.015Z,18.85
2022-10-15T12:38:12.991Z,18.88
2022-10-15T12:40:41.137Z,18.88
2022-10-15T12:43:16.234Z,18.87
2022-10-15T12:46:00.397Z,18.76
2022-10-15T12:48:35.006Z,18.76
2022-10-15T12:51:17.289Z,18.67
2022-10-15T12:53:46.462Z,18.68
2022-10-15T12:56:16.102Z,18.67
2022-10-15T12:58:43.020Z,18.63
2022-10-15T13:01:16.134Z,18.58
2022-10-15T13:03:52.337Z,18.58
2022-10-15T13:06:23.300Z,18.50
2022-10-15T13:08:50.235Z,18.43
2022-10-15T13:14:52.489Z,18.23
2022-10-15T13:17:21.773Z,18.12
2022-10-15T13:20:25.278Z,18.04
2022-10-15T13:22:58.377Z,18.00
2022-10-15T13:25:35.717Z,18.01
2022-10-15T13:28:02.797Z,17.97
2022-10-15T13:30:29.807Z,17.94
2022-10-15T13:32:57.358Z,17.98
2022-10-15T13:35:29.837Z,17.94
2022-10-15T13:37:58.080Z,17.93
2022-10-15T13:40:26.418Z,17.97
2022-10-15T13:43:15.569Z,17.98
2022-10-15T13:45:50.546Z,18.02
2022-10-15T13:48:22.499Z,18.06
2022-10-15T13:50:53.869Z,18.08
2022-10-15T13:53:29.388Z,18.09
2022-10-15T13:56:03.626Z,18.14
2022-10-15T13:58:38.846Z,18.15
2022-10-15T14:01:15.377Z,18.09
2022-10-15T14:03:51.137Z,18.16
2022-10-15T14:06:22.523Z,18.17
2022-10-15T14:08:55.387Z,18.17
2022-10-15T14:11:23.648Z,18.23
2022-10-15T14:13:51.706Z,18.21
2022-10-15T14:16:39.497Z,18.22
2022-10-15T14:19:06.858Z,18.21
2022-10-15T14:21:36.236Z,18.25
2022-10-15T14:24:05.589Z,18.31
2022-10-15T14:26:34.437Z,18.36
2022-10-15T14:29:02.148Z,18.46
2022-10-15T14:31:38.363Z,18.36
2022-10-15T14:34:34.859Z,18.39
2022-10-15T14:37:03.637Z,18.51
2022-10-15T14:39:35.066Z,18.72
2022-10-15T14:42:06.238Z,18.77
2022-10-15T14:44:42.322Z,18.82
2022-10-15T14:47:25.054Z,18.84
2022-10-15T14:49:55.914Z,18.79
2022-10-15T14:52:24.002Z,18.72
2022-10-15T14:55:00.202Z,18.64
2022-10-15T14:57:30.854Z,18.55
2022-10-15T14:59:59.067Z,18.39
2022-10-15T15:02:27.692Z,18.07
2022-10-15T15:05:13.248Z,18.02
2022-10-15T15:07:41.074Z,18.05
2022-10-15T15:10:09.517Z,18.03
2022-10-15T15:12:39.346Z,17.99
2022-10-15T15:15:15.002Z,17.90
2022-10-15T15:17:42.237Z,17.87
2022-10-15T15:20:09.993Z,17.82
2022-10-15T15:22:38.086Z,17.79
2022-10-15T15:25:17.587Z,17.71
2022-10-15T15:27:44.587Z,17.68
2022-10-15T15:30:20.897Z,17.66
2022-10-15T15:32:48.559Z,17.54
2022-10-15T15:35:21.605Z,17.54
2022-10-15T15:37:51.817Z,17.46
2022-10-15T15:40:19.323Z,17.43
2022-10-15T15:42:46.477Z,17.38
2022-10-15T15:45:22.846Z,17.34
2022-10-15T15:47:50.893Z,17.29
2022-10-15T15:50:19.346Z,17.32
2022-10-15T15:52:47.006Z,17.29
2022-10-15T15:55:14.445Z,17.30
2022-10-15T15:57:41.987Z,17.28
2022-10-15T16:00:10.586Z,17.26
2022-10-15T16:02:38.426Z,17.26
2022-10-15T16:05:07.433Z,17.22
2022-10-15T16:07:35.539Z,17.23
2022-10-15T16:10:04.217Z,17.21
2022-10-15T16:12:31.266Z,17.18
2022-10-15T16:17:25.406Z,17.13
2022-10-15T16:19:52.607Z,17.09
2022-10-15T16:22:19.668Z,17.09
2022-10-15T16:24:46.767Z,17.05
2022-10-15T16:27:13.781Z,17.02
2022-10-15T16:29:40.782Z,17.01
2022-10-15T16:32:07.782Z,16.98
2022-10-15T16:34:34.771Z,16.95
2022-10-15T16:37:01.777Z,16.93
2022-10-15T16:39:28.837Z,16.88
2022-10-15T16:41:56.437Z,16.84
2022-10-15T16:44:23.446Z,16.81
2022-10-15T16:46:50.499Z,16.77
2022-10-15T16:49:17.937Z,16.75
2022-10-15T16:51:45.211Z,16.71
2022-10-15T16:54:15.614Z,16.65
2022-10-15T16:56:43.456Z,16.64
2022-10-15T16:59:10.966Z,16.61
2022-10-15T17:01:38.200Z,16.58
2022-10-15T17:04:05.276Z,16.51
2022-10-15T17:06:32.448Z,16.49
2022-10-15T17:09:01.378Z,16.45
2022-10-15T17:11:34.996Z,16.40
2022-10-15T17:14:06.205Z,16.38
2022-10-15T17:16:36.718Z,16.33
2022-10-15T17:19:04.783Z,16.27
2022-10-15T17:21:32.498Z,16.21
2022-10-15T17:24:02.278Z,16.16
2022-10-15T17:26:40.639Z,16.13
2022-10-15T17:29:16.484Z,16.10
2022-10-15T17:31:44.085Z,16.07
2022-10-15T17:34:12.386Z,16.04
2022-10-15T17:36:43.295Z,16.02
2022-10-15T17:39:15.406Z,15.96
2022-10-15T17:41:42.810Z,15.91
2022-10-15T17:44:11.881Z,15.85
2022-10-15T17:46:39.347Z,15.81
2022-10-15T17:49:08.128Z,15.77
2022-10-15T17:51:36.871Z,15.72
2022-10-15T17:54:06.477Z,15.70
2022-10-15T17:56:35.673Z,15.67
2022-10-15T17:59:05.526Z,15.66
2022-10-15T18:02:05.398Z,15.65
2022-10-15T18:04:23.558Z,15.63
2022-10-15T18:06:50.875Z,15.58
2022-10-15T18:09:27.867Z,15.60
2022-10-15T18:12:00.725Z,15.58
2022-10-15T18:14:29.514Z,15.57
2022-10-15T18:16:57.083Z,15.57
2022-10-15T18:19:25.978Z,15.55
2022-10-15T18:21:53.157Z,15.61
2022-10-15T18:24:22.214Z,15.45
2022-10-15T18:26:50.309Z,15.44
2022-10-15T18:29:17.450Z,15.46
2022-10-15T18:31:45.446Z,15.46
2022-10-15T18:34:12.455Z,15.47
2022-10-15T18:36:41.865Z,15.48
2022-10-15T18:39:09.126Z,15.49
2022-10-15T18:41:38.446Z,15.52
2022-10-15T18:44:11.964Z,15.55
2022-10-15T18:46:40.054Z,15.54
2022-10-15T18:49:06.986Z,15.60
2022-10-15T18:51:34.104Z,15.63
2022-10-15T18:54:01.264Z,15.65
2022-10-15T18:56:28.795Z,15.64
2022-10-15T18:58:56.007Z,15.66
2022-10-15T19:01:39.213Z,15.65
2022-10-15T19:04:09.817Z,15.65
2022-10-15T19:06:39.676Z,15.64
2022-10-15T19:09:09.697Z,15.63
2022-10-15T19:11:37.876Z,15.62
2022-10-15T19:14:06.861Z,15.63
2022-10-15T19:16:35.436Z,15.65
2022-10-15T19:19:04.388Z,15.65
2022-10-15T19:21:32.606Z,15.66
2022-10-15T19:23:59.497Z,15.67
2022-10-15T19:26:27.918Z,15.69
2022-10-15T19:28:57.015Z,15.71
2022-10-15T19:31:32.818Z,15.73
2022-10-15T19:34:00.627Z,15.74
2022-10-15T19:36:37.107Z,15.74
2022-10-15T19:39:11.145Z,15.76
2022-10-15T19:41:40.205Z,15.77
2022-10-15T19:44:08.510Z,15.71
2022-10-15T19:46:37.146Z,15.74
2022-10-15T19:49:05.714Z,15.75
2022-10-15T19:51:32.869Z,15.72
2022-10-15T19:54:00.885Z,15.71
2022-10-15T19:56:31.757Z,15.69
2022-10-15T19:59:01.570Z,15.67
2022-10-15T20:01:30.432Z,15.60
2022-10-15T20:04:03.234Z,15.53
2022-10-15T20:06:34.111Z,15.52
2022-10-15T20:09:02.356Z,15.44
2022-10-15T20:11:29.498Z,15.41
2022-10-15T20:13:56.531Z,15.39
2022-10-15T20:16:24.797Z,15.35
2022-10-15T20:18:52.716Z,15.33
2022-10-15T20:21:19.735Z,15.32
2022-10-15T20:23:48.005Z,15.31
2022-10-15T20:26:15.821Z,15.33
2022-10-15T20:28:44.520Z,15.32
2022-10-15T20:31:17.227Z,15.31
2022-10-15T20:33:45.136Z,15.29
2022-10-15T20:36:15.830Z,15.28
2022-10-15T20:38:44.534Z,15.28
2022-10-15T20:41:15.061Z,15.27
2022-10-15T20:43:43.832Z,15.25
2022-10-15T20:46:14.426Z,15.26
2022-10-15T20:48:42.705Z,15.24
2022-10-15T20:51:13.723Z,15.25
2022-10-15T20:53:41.657Z,15.24
2022-10-15T20:56:08.857Z,15.23
2022-10-15T20:58:35.828Z,15.18
2022-10-15T21:01:03.117Z,15.16
2022-10-15T21:03:32.866Z,15.18
2022-10-15T21:06:00.402Z,15.11
2022-10-15T21:08:27.786Z,15.09
2022-10-15T21:11:01.567Z,15.08
2022-10-15T21:13:28.646Z,15.05
2022-10-15T21:16:00.018Z,15.00
2022-10-15T21:18:27.654Z,14.97
2022-10-15T21:20:55.656Z,14.96
2022-10-15T21:23:22.677Z,14.94
2022-10-15T21:25:49.733Z,14.95
2022-10-15T21:28:16.748Z,14.96
2022-10-15T21:30:43.745Z,14.96
2022-10-15T21:33:10.802Z,14.98
2022-10-15T21:35:37.725Z,14.96
2022-10-15T21:38:04.664Z,15.01
2022-10-15T21:40:31.692Z,15.04
2022-10-15T21:42:59.434Z,15.05
2022-10-15T21:45:26.493Z,14.98
2022-10-15T21:47:53.488Z,15.07
2022-10-15T21:50:20.496Z,15.10
2022-10-15T21:52:47.516Z,15.09
2022-10-15T21:55:14.771Z,15.09
2022-10-15T21:57:41.704Z,15.08
2022-10-15T22:00:14.392Z,15.04
2022-10-15T22:02:44.204Z,15.02
2022-10-15T22:05:11.107Z,15.02
2022-10-15T22:07:40.247Z,14.98
2022-10-15T22:10:07.767Z,14.99
2022-10-15T22:12:34.664Z,15.00
2022-10-15T22:15:01.745Z,15.00
2022-10-15T22:17:28.827Z,14.99
2022-10-15T22:19:55.746Z,15.01
2022-10-15T22:22:22.954Z,15.00
2022-10-15T22:24:50.258Z,14.99
2022-10-15T22:27:17.178Z,14.96
2022-10-15T22:29:44.396Z,14.95
2022-10-15T22:32:11.486Z,14.95
2022-10-15T22:34:38.425Z,14.86
2022-10-15T22:37:05.373Z,14.82
2022-10-15T22:39:32.465Z,14.74
2022-10-15T22:41:59.347Z,14.71
2022-10-15T22:44:26.343Z,14.68
2022-10-15T22:46:53.383Z,14.64
2022-10-15T22:49:22.325Z,14.61
2022-10-15T22:51:50.686Z,14.56
2022-10-15T22:54:19.768Z,14.54
2022-10-15T22:56:47.226Z,14.50
2022-10-15T22:59:15.171Z,14.45
2022-10-15T23:01:42.743Z,14.45
2022-10-15T23:04:13.225Z,14.40
2022-10-15T23:06:40.740Z,14.41
2022-10-15T23:09:09.101Z,14.37
2022-10-15T23:11:37.889Z,14.34
2022-10-15T23:14:14.750Z,14.33
2022-10-15T23:16:44.430Z,14.27
2022-10-15T23:19:15.027Z,14.25
2022-10-15T23:21:47.691Z,14.21
2022-10-15T23:24:15.531Z,14.21
2022-10-15T23:26:42.900Z,14.19
2022-10-15T23:29:14.980Z,14.15
2022-10-15T23:31:42.304Z,14.15
2022-10-15T23:34:15.340Z,14.12
2022-10-15T23:36:43.860Z,14.11
2022-10-15T23:39:13.508Z,14.09
2022-10-15T23:41:40.699Z,14.09
2022-10-15T23:44:07.923Z,14.07
2022-10-15T23:46:34.882Z,14.04
2022-10-15T23:49:01.929Z,14.00
2022-10-15T23:51:31.461Z,13.97
2022-10-15T23:53:59.902Z,13.95
2022-10-15T23:56:27.192Z,13.92
2022-10-15T23:58:56.360Z,13.93
